Time;durP1;ratioP1;P1;durP2;ratioP2;P2;SDS_P1;SDS_P2;PMS_P1;PMS_P2;Temp;Humidity;BMP_temperature;BMP_pressure;BME280_temperature;BME280_humidity;BME280_pressure;Samples;Min_cycle;Max_cycle;Signal;HPM_P1;HPM_P2
2023/12/16 00:00:54;;;;;;;0.10;0.10;;;;;;;;;;5011661;28;20054;-90
2023/12/16 00:03:20;;;;;;;0.10;0.10;;;;;;;;;;4995699;28;20401;-91
2023/12/16 00:05:48;;;;;;;0.10;0.10;;;;;;;;;;4995476;28;20041;-89
2023/12/16 00:08:14;;;;;;;0.10;0.10;;;;;;;;;;4995568;28;20069;-90
2023/12/16 00:10:40;;;;;;;0.10;0.10;;;;;;;;;;5011794;28;20046;-90
2023/12/16 00:13:06;;;;;;;0.10;0.10;;;;;;;;;;5012090;28;20042;-89
2023/12/16 00:15:32;;;;;;;0.10;0.10;;;;;;;;;;4995235;28;20401;-90
2023/12/16 00:17:58;;;;;;;0.10;0.10;;;;;;;;;;4995087;28;20042;-89
2023/12/16 00:20:24;;;;;;;0.10;0.10;;;;;;;;;;4995081;28;20041;-89
2023/12/16 00:22:50;;;;;;;0.10;0.10;;;;;;;;;;5011793;28;20045;-89
2023/12/16 00:25:16;;;;;;;0.10;0.10;;;;;;;;;;5011619;28;20436;-90
2023/12/16 00:27:42;;;;;;;0.10;0.10;;;;;;;;;;4995098;28;20092;-88
2023/12/16 00:30:08;;;;;;;0.10;0.10;;;;;;;;;;4995026;28;20041;-90
2023/12/16 00:32:34;;;;;;;0.10;0.10;;;;;;;;;;4995447;28;20053;-89
2023/12/16 00:35:00;;;;;;;0.10;0.10;;;;;;;;;;4994999;28;20041;-90
2023/12/16 00:37:26;;;;;;;0.10;0.10;;;;;;;;;;4995061;28;20038;-90
2023/12/16 00:39:52;;;;;;;0.10;0.10;;;;;;;;;;5011655;28;20034;-89
2023/12/16 00:42:19;;;;;;;0.35;0.28;;;;;;;;;;4995087;28;20042;-90
2023/12/16 00:44:44;;;;;;;0.10;0.10;;;;;;;;;;4994794;28;20041;-90
2023/12/16 00:47:10;;;;;;;0.10;0.10;;;;;;;;;;5011543;28;20112;-89
2023/12/16 00:49:36;;;;;;;0.10;0.10;;;;;;;;;;4994930;28;20042;-90
2023/12/16 00:52:03;;;;;;;0.10;0.10;;;;;;;;;;4995087;28;20061;-89
2023/12/16 00:54:29;;;;;;;0.10;0.10;;;;;;;;;;4995005;28;20413;-90
2023/12/16 00:56:55;;;;;;;0.10;0.10;;;;;;;;;;4994797;28;20041;-90
2023/12/16 00:59:22;;;;;;;0.13;0.13;;;;;;;;;;4994873;28;20029;-90
2023/12/16 01:01:48;;;;;;;0.10;0.10;;;;;;;;;;4994833;28;20054;-90
2023/12/16 01:04:14;;;;;;;0.10;0.10;;;;;;;;;;5011122;28;20046;-90
2023/12/16 01:06:40;;;;;;;0.10;0.10;;;;;;;;;;5013988;28;20041;-90
2023/12/16 01:09:07;;;;;;;0.10;0.10;;;;;;;;;;4999125;28;20069;-90
2023/12/16 01:11:33;;;;;;;0.20;0.20;;;;;;;;;;4998543;28;20593;-90
2023/12/16 01:13:59;;;;;;;0.20;0.20;;;;;;;;;;4998793;28;20488;-89
2023/12/16 01:16:25;;;;;;;0.10;0.10;;;;;;;;;;4998524;28;20072;-90
2023/12/16 01:18:51;;;;;;;0.10;0.10;;;;;;;;;;4998619;28;20038;-89
2023/12/16 01:21:17;;;;;;;0.20;0.20;;;;;;;;;;4998708;28;20389;-90
2023/12/16 01:23:44;;;;;;;0.10;0.10;;;;;;;;;;5014861;28;20045;-89
2023/12/16 01:26:11;;;;;;;0.15;0.15;;;;;;;;;;4998635;28;20038;-91
2023/12/16 01:28:37;;;;;;;0.10;0.10;;;;;;;;;;4998881;28;20069;-90
2023/12/16 01:31:03;;;;;;;0.10;0.10;;;;;;;;;;4998286;28;20481;-90
2023/12/16 01:33:29;;;;;;;0.10;0.10;;;;;;;;;;4998738;28;20049;-89
2023/12/16 01:35:55;;;;;;;0.10;0.10;;;;;;;;;;4998138;28;20053;-90
2023/12/16 01:38:22;;;;;;;0.10;0.10;;;;;;;;;;4998288;28;20041;-89
2023/12/16 01:40:48;;;;;;;0.10;0.10;;;;;;;;;;4998240;28;20112;-90
2023/12/16 01:43:14;;;;;;;0.10;0.10;;;;;;;;;;4998245;28;20061;-90
2023/12/16 01:45:40;;;;;;;0.10;0.10;;;;;;;;;;4998231;28;20030;-90
2023/12/16 01:48:06;;;;;;;0.10;0.10;;;;;;;;;;4997829;28;20050;-89
2023/12/16 01:50:35;;;;;;;0.10;0.10;;;;;;;;;;4997925;28;20481;-89
2023/12/16 01:53:02;;;;;;;0.17;0.17;;;;;;;;;;4998209;28;20603;-90
2023/12/16 01:55:28;;;;;;;0.20;0.20;;;;;;;;;;4997904;28;20046;-89
2023/12/16 01:57:55;;;;;;;0.20;0.20;;;;;;;;;;5014468;28;20069;-89
2023/12/16 02:00:21;;;;;;;0.10;0.10;;;;;;;;;;4997982;28;20513;-91
2023/12/16 02:02:47;;;;;;;0.10;0.10;;;;;;;;;;4997920;28;20122;-89
2023/12/16 02:05:13;;;;;;;0.10;0.10;;;;;;;;;;4998072;28;20074;-89
2023/12/16 02:07:39;;;;;;;0.10;0.10;;;;;;;;;;5013828;28;20042;-89
2023/12/16 02:10:05;;;;;;;0.10;0.10;;;;;;;;;;5013699;28;20048;-90
2023/12/16 02:12:34;;;;;;;0.10;0.10;;;;;;;;;;4997450;28;20052;-89
2023/12/16 02:15:00;;;;;;;0.10;0.10;;;;;;;;;;5013576;28;20045;-89
2023/12/16 02:17:26;;;;;;;0.10;0.10;;;;;;;;;;4996888;28;20078;-89
2023/12/16 02:19:53;;;;;;;0.10;0.10;;;;;;;;;;5013520;28;20041;-89
2023/12/16 02:22:19;;;;;;;0.10;0.10;;;;;;;;;;5013755;28;20066;-88
2023/12/16 02:24:45;;;;;;;0.10;0.10;;;;;;;;;;5013717;28;20037;-89
2023/12/16 02:27:11;;;;;;;0.10;0.10;;;;;;;;;;4997446;28;20038;-89
2023/12/16 02:29:37;;;;;;;0.10;0.10;;;;;;;;;;4997228;28;20040;-88
2023/12/16 02:32:03;;;;;;;0.17;0.17;;;;;;;;;;4997327;28;20041;-89
2023/12/16 02:34:30;;;;;;;0.10;0.10;;;;;;;;;;5013338;28;20418;-90
2023/12/16 02:36:56;;;;;;;0.10;0.10;;;;;;;;;;4996802;28;20049;-90
2023/12/16 02:39:22;;;;;;;0.10;0.10;;;;;;;;;;4997035;28;20033;-88
2023/12/16 02:41:48;;;;;;;0.10;0.10;;;;;;;;;;4996841;28;20041;-91
2023/12/16 02:44:14;;;;;;;0.10;0.10;;;;;;;;;;5013724;28;20038;-89
2023/12/16 02:46:40;;;;;;;0.10;0.10;;;;;;;;;;4996842;28;20037;-90
2023/12/16 02:49:06;;;;;;;0.10;0.10;;;;;;;;;;4996834;28;20057;-89
2023/12/16 02:51:32;;;;;;;0.10;0.10;;;;;;;;;;4996668;28;20131;-90
2023/12/16 02:53:58;;;;;;;0.10;0.10;;;;;;;;;;4996491;28;20135;-89
2023/12/16 02:56:24;;;;;;;0.10;0.10;;;;;;;;;;4996735;28;20461;-90
2023/12/16 02:58:50;;;;;;;0.10;0.10;;;;;;;;;;4996900;28;20073;-89
2023/12/16 03:01:16;;;;;;;0.10;0.10;;;;;;;;;;4996773;28;20135;-89
2023/12/16 03:03:42;;;;;;;0.10;0.10;;;;;;;;;;4996879;28;20034;-90
2023/12/16 03:06:08;;;;;;;0.10;0.10;;;;;;;;;;5012952;28;20044;-90
2023/12/16 03:08:35;;;;;;;0.15;0.15;;;;;;;;;;4996076;28;20054;-90
2023/12/16 03:11:01;;;;;;;0.10;0.10;;;;;;;;;;4996059;28;20041;-89
2023/12/16 03:13:27;;;;;;;0.10;0.10;;;;;;;;;;4996541;28;20136;-90
2023/12/16 03:15:53;;;;;;;0.10;0.10;;;;;;;;;;4996553;28;20080;-90
2023/12/16 03:18:19;;;;;;;0.20;0.20;;;;;;;;;;5012576;28;20205;-90
2023/12/16 03:20:45;;;;;;;0.10;0.10;;;;;;;;;;4996212;28;20038;-90
2023/12/16 03:23:11;;;;;;;0.10;0.10;;;;;;;;;;4996429;28;20119;-89
2023/12/16 03:25:37;;;;;;;0.10;0.10;;;;;;;;;;5012542;28;20095;-89
2023/12/16 03:28:06;;;;;;;0.10;0.10;;;;;;;;;;4995815;28;20489;-90
2023/12/16 03:30:32;;;;;;;0.10;0.10;;;;;;;;;;4996412;28;20046;-89
2023/12/16 03:32:58;;;;;;;0.10;0.10;;;;;;;;;;5012292;28;20347;-90
2023/12/16 03:35:26;;;;;;;0.10;0.10;;;;;;;;;;4996365;28;20042;-91
2023/12/16 03:37:53;;;;;;;0.10;0.10;;;;;;;;;;5012771;28;20081;-90
2023/12/16 03:40:19;;;;;;;0.10;0.10;;;;;;;;;;5012674;28;20048;-90
2023/12/16 03:42:45;;;;;;;0.10;0.10;;;;;;;;;;4996683;28;20048;-90
2023/12/16 03:45:11;;;;;;;0.10;0.10;;;;;;;;;;4996259;28;20120;-90
2023/12/16 03:47:38;;;;;;;0.10;0.10;;;;;;;;;;4995692;28;20096;-90
2023/12/16 03:50:05;;;;;;;0.10;0.10;;;;;;;;;;4995700;28;20150;-90
2023/12/16 03:52:32;;;;;;;0.10;0.10;;;;;;;;;;4995836;28;20056;-90
2023/12/16 03:54:58;;;;;;;0.10;0.10;;;;;;;;;;4996085;28;20435;-90
2023/12/16 03:57:24;;;;;;;0.10;0.10;;;;;;;;;;4995608;28;20501;-89
2023/12/16 03:59:50;;;;;;;0.15;0.15;;;;;;;;;;4995446;28;20073;-90
2023/12/16 04:02:16;;;;;;;0.10;0.10;;;;;;;;;;4995601;28;20042;-89
2023/12/16 04:04:42;;;;;;;0.10;0.10;;;;;;;;;;4995563;28;20041;-89
2023/12/16 04:07:09;;;;;;;0.10;0.10;;;;;;;;;;4995975;28;20466;-89
2023/12/16 04:09:35;;;;;;;0.10;0.10;;;;;;;;;;4995453;28;20097;-90
2023/12/16 04:12:02;;;;;;;0.10;0.10;;;;;;;;;;4995305;28;20442;-90
2023/12/16 04:14:28;;;;;;;0.10;0.10;;;;;;;;;;4995410;28;20044;-89
2023/12/16 04:16:54;;;;;;;0.20;0.20;;;;;;;;;;5011827;28;20478;-89
2023/12/16 04:19:20;;;;;;;0.10;0.10;;;;;;;;;;4995417;28;20045;-90
2023/12/16 04:21:46;;;;;;;0.10;0.10;;;;;;;;;;4995273;28;20038;-89
2023/12/16 04:24:12;;;;;;;0.10;0.10;;;;;;;;;;5011761;28;20379;-89
2023/12/16 04:26:38;;;;;;;0.10;0.10;;;;;;;;;;4995555;28;20034;-89
2023/12/16 04:29:04;;;;;;;0.10;0.10;;;;;;;;;;5011648;28;20048;-89
2023/12/16 04:31:30;;;;;;;0.10;0.10;;;;;;;;;;4995052;28;20045;-89
2023/12/16 04:33:56;;;;;;;0.13;0.13;;;;;;;;;;4994894;28;20041;-90
2023/12/16 04:36:22;;;;;;;0.10;0.10;;;;;;;;;;4995499;28;20050;-89
2023/12/16 04:38:48;;;;;;;0.10;0.10;;;;;;;;;;4995186;28;20045;-90
2023/12/16 04:41:15;;;;;;;0.10;0.10;;;;;;;;;;5001366;28;20037;-90
2023/12/16 04:43:41;;;;;;;0.10;0.10;;;;;;;;;;5017967;28;20037;-90
2023/12/16 04:46:07;;;;;;;0.10;0.10;;;;;;;;;;5001632;28;20404;-90
2023/12/16 04:48:33;;;;;;;0.10;0.10;;;;;;;;;;5001320;28;20041;-90
2023/12/16 04:51:06;;;;;;;0.10;0.10;;;;;;;;;;5001451;28;20034;-89
2023/12/16 04:53:35;;;;;;;0.10;0.10;;;;;;;;;;5001299;28;20046;-91
2023/12/16 04:56:01;;;;;;;0.10;0.10;;;;;;;;;;5018003;28;20050;-89
2023/12/16 04:58:27;;;;;;;0.10;0.10;;;;;;;;;;5001539;28;20049;-89
2023/12/16 05:00:53;;;;;;;0.10;0.10;;;;;;;;;;5001271;28;20058;-89
2023/12/16 05:03:19;;;;;;;0.10;0.10;;;;;;;;;;5001215;28;20042;-89
2023/12/16 05:05:45;;;;;;;0.20;0.20;;;;;;;;;;5001408;28;20084;-89
2023/12/16 05:08:12;;;;;;;0.10;0.10;;;;;;;;;;5001124;28;20041;-90
2023/12/16 05:10:38;;;;;;;0.10;0.10;;;;;;;;;;5001104;28;20056;-90
2023/12/16 05:13:04;;;;;;;0.10;0.10;;;;;;;;;;5017925;28;20108;-90
2023/12/16 05:15:30;;;;;;;0.13;0.13;;;;;;;;;;5001111;28;20073;-90
2023/12/16 05:17:56;;;;;;;0.10;0.10;;;;;;;;;;5018077;28;20045;-91
2023/12/16 05:20:22;;;;;;;0.20;0.20;;;;;;;;;;5018169;28;20366;-90
2023/12/16 05:22:48;;;;;;;0.10;0.10;;;;;;;;;;5018240;28;20433;-90
2023/12/16 05:25:14;;;;;;;0.10;0.10;;;;;;;;;;5001443;28;20064;-89
2023/12/16 05:27:40;;;;;;;0.10;0.10;;;;;;;;;;5001520;28;20402;-90
2023/12/16 05:30:07;;;;;;;0.10;0.10;;;;;;;;;;5017691;28;20042;-90
2023/12/16 05:32:32;;;;;;;0.20;0.20;;;;;;;;;;5017829;28;20251;-90
2023/12/16 05:34:59;;;;;;;0.10;0.10;;;;;;;;;;5001398;28;20060;-90
2023/12/16 05:37:25;;;;;;;0.10;0.10;;;;;;;;;;5001334;28;20041;-90
2023/12/16 05:39:52;;;;;;;0.10;0.10;;;;;;;;;;5001266;28;20120;-90
2023/12/16 05:42:18;;;;;;;0.10;0.10;;;;;;;;;;5017318;28;20042;-89
2023/12/16 05:44:44;;;;;;;0.10;0.10;;;;;;;;;;5001174;28;20046;-89
2023/12/16 05:47:10;;;;;;;0.10;0.10;;;;;;;;;;5017465;28;20375;-89
2023/12/16 05:49:36;;;;;;;0.10;0.10;;;;;;;;;;5017394;28;20069;-89
2023/12/16 05:52:02;;;;;;;0.10;0.10;;;;;;;;;;4998544;28;20038;-88
2023/12/16 05:54:28;;;;;;;0.20;0.20;;;;;;;;;;4998174;28;20095;-89
2023/12/16 05:56:54;;;;;;;0.10;0.10;;;;;;;;;;5014457;28;20037;-89
2023/12/16 05:59:20;;;;;;;0.20;0.20;;;;;;;;;;4997966;28;20048;-89
2023/12/16 06:01:46;;;;;;;0.10;0.10;;;;;;;;;;5014195;28;20189;-89
2023/12/16 06:04:14;;;;;;;0.10;0.10;;;;;;;;;;4997866;28;20413;-89
2023/12/16 06:06:41;;;;;;;0.10;0.10;;;;;;;;;;4997640;28;20045;-89
2023/12/16 06:09:07;;;;;;;0.10;0.10;;;;;;;;;;5014102;28;20049;-89
2023/12/16 06:11:33;;;;;;;0.10;0.10;;;;;;;;;;5013756;28;20046;-89
2023/12/16 06:14:00;;;;;;;0.10;0.10;;;;;;;;;;4997591;28;20169;-89
2023/12/16 06:16:26;;;;;;;0.10;0.10;;;;;;;;;;5013652;28;20073;-89
2023/12/16 06:18:52;;;;;;;0.10;0.10;;;;;;;;;;4997248;28;20052;-89
2023/12/16 06:21:18;;;;;;;0.20;0.20;;;;;;;;;;5013535;28;20474;-89
2023/12/16 06:23:44;;;;;;;0.20;0.20;;;;;;;;;;4997497;28;20034;-88
2023/12/16 06:26:10;;;;;;;0.10;0.10;;;;;;;;;;4996880;28;20129;-89
2023/12/16 06:28:36;;;;;;;0.10;0.10;;;;;;;;;;5013340;28;20050;-88
2023/12/16 06:31:02;;;;;;;0.10;0.10;;;;;;;;;;5013355;28;20054;-88
2023/12/16 06:33:28;;;;;;;0.10;0.10;;;;;;;;;;4997123;28;20500;-89
2023/12/16 06:35:55;;;;;;;0.10;0.10;;;;;;;;;;5013322;28;20049;-89
2023/12/16 06:38:21;;;;;;;0.10;0.10;;;;;;;;;;4996920;28;20151;-90
2023/12/16 06:40:47;;;;;;;0.10;0.10;;;;;;;;;;4997010;28;20198;-90
2023/12/16 06:43:14;;;;;;;0.10;0.10;;;;;;;;;;4997367;28;20048;-90
2023/12/16 06:45:40;;;;;;;0.10;0.10;;;;;;;;;;4997120;28;20093;-89
2023/12/16 06:48:06;;;;;;;0.10;0.10;;;;;;;;;;4997185;28;20426;-89
2023/12/16 06:50:32;;;;;;;0.20;0.20;;;;;;;;;;4997100;28;20056;-89
2023/12/16 06:52:58;;;;;;;0.10;0.10;;;;;;;;;;4997084;28;20069;-89
2023/12/16 06:55:24;;;;;;;0.10;0.10;;;;;;;;;;5013281;28;20113;-90
2023/12/16 06:57:50;;;;;;;0.13;0.13;;;;;;;;;;4996536;28;20065;-90
2023/12/16 07:00:16;;;;;;;0.17;0.17;;;;;;;;;;5013148;28;20065;-90
2023/12/16 07:02:43;;;;;;;0.10;0.10;;;;;;;;;;5012262;28;20042;-89
2023/12/16 07:05:10;;;;;;;0.10;0.10;;;;;;;;;;4995873;28;20092;-90
2023/12/16 07:07:36;;;;;;;0.10;0.10;;;;;;;;;;4996278;28;20052;-89
2023/12/16 07:10:02;;;;;;;0.10;0.10;;;;;;;;;;5012640;28;20133;-93
2023/12/16 07:12:28;;;;;;;0.10;0.10;;;;;;;;;;5012919;28;20503;-88
2023/12/16 07:14:54;;;;;;;0.10;0.10;;;;;;;;;;4996542;28;20052;-88
2023/12/16 07:17:20;;;;;;;0.10;0.10;;;;;;;;;;4996170;28;20100;-90
2023/12/16 07:19:46;;;;;;;0.20;0.20;;;;;;;;;;5012540;28;20508;-88
2023/12/16 07:22:16;;;;;;;1.25;0.40;;;;;;;;;;5012262;28;20038;-89
2023/12/16 07:24:42;;;;;;;0.17;0.17;;;;;;;;;;4995840;28;20046;-88
2023/12/16 07:27:09;;;;;;;0.10;0.10;;;;;;;;;;4995780;28;20396;-89
2023/12/16 07:29:35;;;;;;;0.15;0.15;;;;;;;;;;5012048;28;20037;-89
2023/12/16 07:32:01;;;;;;;0.10;0.10;;;;;;;;;;4995990;28;20044;-88
2023/12/16 07:34:27;;;;;;;0.10;0.10;;;;;;;;;;4995766;28;20050;-88
2023/12/16 07:36:54;;;;;;;0.20;0.20;;;;;;;;;;5012243;28;20044;-89
2023/12/16 07:39:20;;;;;;;0.10;0.10;;;;;;;;;;5011759;28;20049;-88
2023/12/16 07:41:48;;;;;;;0.10;0.10;;;;;;;;;;4995618;28;20157;-88
2023/12/16 07:44:14;;;;;;;0.10;0.10;;;;;;;;;;5012059;28;20041;-87
2023/12/16 07:46:40;;;;;;;0.20;0.20;;;;;;;;;;5011897;28;20064;-88
2023/12/16 07:49:06;;;;;;;0.10;0.10;;;;;;;;;;4995474;28;20045;-88
2023/12/16 07:51:32;;;;;;;0.17;0.17;;;;;;;;;;4995548;28;20048;-88
2023/12/16 07:53:58;;;;;;;0.10;0.10;;;;;;;;;;4995466;28;20041;-89
2023/12/16 07:56:27;;;;;;;0.15;0.15;;;;;;;;;;5012011;28;20416;-88
2023/12/16 07:58:54;;;;;;;0.10;0.10;;;;;;;;;;4995341;28;20128;-89
2023/12/16 08:01:20;;;;;;;0.10;0.10;;;;;;;;;;4991770;28;20050;-88
2023/12/16 08:03:46;;;;;;;0.10;0.10;;;;;;;;;;4975811;28;20125;-89
2023/12/16 08:06:15;;;;;;;0.10;0.10;;;;;;;;;;4976160;28;20046;-88
2023/12/16 08:08:41;;;;;;;0.10;0.10;;;;;;;;;;4976341;28;20387;-89
2023/12/16 08:11:07;;;;;;;0.20;0.20;;;;;;;;;;4976321;28;20050;-90
2023/12/16 08:13:33;;;;;;;0.20;0.20;;;;;;;;;;4976305;28;20054;-91
2023/12/16 08:16:01;;;;;;;0.13;0.13;;;;;;;;;;4975959;28;20054;-89
2023/12/16 08:18:27;;;;;;;0.10;0.10;;;;;;;;;;4975807;28;20048;-89
2023/12/16 08:20:53;;;;;;;0.20;0.20;;;;;;;;;;4975790;28;20084;-90
2023/12/16 08:23:19;;;;;;;0.10;0.10;;;;;;;;;;4976031;28;20039;-89
2023/12/16 08:25:46;;;;;;;0.10;0.10;;;;;;;;;;4976330;28;20034;-89
2023/12/16 08:28:12;;;;;;;0.20;0.20;;;;;;;;;;4992200;28;20046;-90
2023/12/16 08:30:38;;;;;;;0.10;0.10;;;;;;;;;;4975795;28;20485;-88
2023/12/16 08:33:04;;;;;;;0.10;0.10;;;;;;;;;;4976152;28;20049;-90
2023/12/16 08:35:30;;;;;;;0.15;0.15;;;;;;;;;;4982074;28;20038;-88
2023/12/16 08:37:56;;;;;;;0.15;0.15;;;;;;;;;;4978934;28;20054;-89
2023/12/16 08:40:23;;;;;;;0.20;0.20;;;;;;;;;;4976080;28;20125;-88
2023/12/16 08:42:49;;;;;;;0.10;0.10;;;;;;;;;;4976571;28;20475;-89
2023/12/16 08:45:15;;;;;;;0.10;0.10;;;;;;;;;;4975843;28;20073;-88
2023/12/16 08:47:41;;;;;;;2.00;0.30;;;;;;;;;;4975888;28;20493;-90
2023/12/16 08:50:09;;;;;;;0.20;0.20;;;;;;;;;;4975806;28;20041;-89
2023/12/16 08:52:35;;;;;;;0.10;0.10;;;;;;;;;;4992005;28;20042;-90
2023/12/16 08:55:01;;;;;;;0.10;0.10;;;;;;;;;;4968235;28;20042;-91
2023/12/16 08:57:30;;;;;;;0.10;0.10;;;;;;;;;;4956379;28;20522;-91
2023/12/16 08:59:57;;;;;;;0.10;0.10;;;;;;;;;;4958375;28;20038;-90
2023/12/16 09:02:23;;;;;;;0.10;0.10;;;;;;;;;;4975699;28;20081;-92
2023/12/16 09:04:49;;;;;;;0.20;0.20;;;;;;;;;;4959552;28;20038;-92
2023/12/16 09:07:15;;;;;;;0.10;0.10;;;;;;;;;;4990981;28;20082;-91
2023/12/16 09:09:41;;;;;;;0.10;0.10;;;;;;;;;;4975122;28;20482;-91
2023/12/16 09:12:07;;;;;;;0.10;0.10;;;;;;;;;;4975653;28;20061;-91
2023/12/16 09:14:34;;;;;;;0.10;0.10;;;;;;;;;;4977263;28;20042;-90
2023/12/16 09:17:00;;;;;;;0.10;0.10;;;;;;;;;;4994807;28;20507;-92
2023/12/16 09:19:26;;;;;;;0.10;0.10;;;;;;;;;;4994470;28;20050;-93
2023/12/16 09:21:52;;;;;;;0.10;0.10;;;;;;;;;;4995064;28;20122;-92
2023/12/16 09:24:18;;;;;;;0.10;0.10;;;;;;;;;;4994664;28;20077;-89
2023/12/16 09:26:44;;;;;;;0.15;0.15;;;;;;;;;;4995220;28;20096;-90
2023/12/16 09:29:10;;;;;;;0.10;0.10;;;;;;;;;;5014500;28;20038;-91
2023/12/16 09:31:37;;;;;;;0.10;0.10;;;;;;;;;;4998870;28;20396;-89
2023/12/16 09:34:03;;;;;;;0.10;0.10;;;;;;;;;;4997672;28;20129;-88
2023/12/16 09:36:29;;;;;;;0.20;0.20;;;;;;;;;;4997704;28;20037;-87
2023/12/16 09:38:55;;;;;;;0.10;0.10;;;;;;;;;;5013953;28;20395;-87
2023/12/16 09:41:22;;;;;;;0.10;0.10;;;;;;;;;;5013908;28;20402;-87
2023/12/16 09:43:55;;;;;;;0.10;0.10;;;;;;;;;;4997716;28;20441;-87
2023/12/16 09:46:25;;;;;;;0.10;0.10;;;;;;;;;;5013998;28;20110;-88
2023/12/16 09:48:51;;;;;;;0.20;0.20;;;;;;;;;;4997722;28;20034;-87
2023/12/16 09:51:17;;;;;;;0.20;0.20;;;;;;;;;;5013937;28;20092;-87
2023/12/16 09:53:43;;;;;;;0.10;0.10;;;;;;;;;;5014248;28;20049;-87
2023/12/16 09:56:11;;;;;;;0.10;0.10;;;;;;;;;;5013848;28;20044;-87
2023/12/16 09:58:37;;;;;;;0.10;0.10;;;;;;;;;;4997385;28;20176;-87
2023/12/16 10:01:03;;;;;;;0.10;0.10;;;;;;;;;;4996627;28;20082;-87
2023/12/16 10:03:29;;;;;;;0.10;0.10;;;;;;;;;;4993971;28;20043;-87
2023/12/16 10:05:55;;;;;;;0.10;0.10;;;;;;;;;;4978104;28;20061;-87
2023/12/16 10:08:21;;;;;;;0.20;0.20;;;;;;;;;;4994088;28;20049;-88
2023/12/16 10:10:48;;;;;;;0.10;0.10;;;;;;;;;;4993942;28;20050;-87
2023/12/16 10:13:14;;;;;;;0.10;0.10;;;;;;;;;;4977844;28;20057;-85
2023/12/16 10:15:41;;;;;;;0.10;0.10;;;;;;;;;;4977552;28;20500;-89
2023/12/16 10:18:07;;;;;;;0.10;0.10;;;;;;;;;;4993734;28;20453;-87
2023/12/16 10:20:33;;;;;;;0.10;0.10;;;;;;;;;;4977486;28;20097;-87
2023/12/16 10:23:01;;;;;;;0.10;0.10;;;;;;;;;;4977429;28;20038;-92
2023/12/16 10:25:27;;;;;;;0.10;0.10;;;;;;;;;;4977333;28;20486;-87
2023/12/16 10:27:58;;;;;;;0.10;0.10;;;;;;;;;;4977495;28;20383;-87
2023/12/16 10:30:26;;;;;;;0.10;0.10;;;;;;;;;;4993521;28;20117;-86
2023/12/16 10:32:51;;;;;;;0.10;0.10;;;;;;;;;;4977282;28;20046;-87
2023/12/16 10:35:17;;;;;;;0.10;0.10;;;;;;;;;;4977261;28;20065;-88
2023/12/16 10:37:47;;;;;;;0.10;0.10;;;;;;;;;;4985196;28;20091;-86
2023/12/16 10:40:14;;;;;;;0.10;0.10;;;;;;;;;;4960984;28;20049;-87
2023/12/16 10:42:40;;;;;;;0.30;0.30;;;;;;;;;;4961478;28;20415;-87
2023/12/16 10:45:07;;;;;;;0.20;0.20;;;;;;;;;;4977284;28;20046;-87
2023/12/16 10:47:33;;;;;;;1.85;1.75;;;;;;;;;;4976800;28;20613;-87
2023/12/16 10:50:00;;;;;;;0.17;0.17;;;;;;;;;;4976885;28;20136;-87
2023/12/16 10:52:26;;;;;;;0.40;0.40;;;;;;;;;;4977136;28;20038;-88
2023/12/16 10:55:00;;;;;;;0.10;0.10;;;;;;;;;;4976979;28;20530;-88
2023/12/16 10:57:39;;;;;;;0.15;0.15;;;;;;;;;;4967335;28;20038;-89
2023/12/16 11:00:07;;;;;;;0.10;0.10;;;;;;;;;;4979636;28;20055;-91
2023/12/16 11:02:37;;;;;;;0.10;0.10;;;;;;;;;;4978219;28;20156;-88
2023/12/16 11:05:07;;;;;;;0.10;0.10;;;;;;;;;;4977689;28;20038;-87
2023/12/16 11:07:38;;;;;;;0.10;0.10;;;;;;;;;;4961086;28;20131;-86
2023/12/16 11:10:05;;;;;;;0.20;0.20;;;;;;;;;;4960544;28;20046;-87
2023/12/16 11:12:33;;;;;;;0.10;0.10;;;;;;;;;;4960662;28;20050;-87
2023/12/16 11:14:59;;;;;;;0.10;0.10;;;;;;;;;;4976425;28;20042;-87
2023/12/16 11:17:27;;;;;;;0.20;0.20;;;;;;;;;;4976212;28;20401;-87
2023/12/16 11:19:56;;;;;;;0.10;0.10;;;;;;;;;;4976554;28;20389;-85
2023/12/16 11:22:24;;;;;;;0.20;0.20;;;;;;;;;;4964000;28;20041;-86
2023/12/16 11:24:52;;;;;;;0.20;0.20;;;;;;;;;;4976056;28;20061;-87
2023/12/16 11:27:19;;;;;;;0.10;0.10;;;;;;;;;;4988352;28;20046;-87
2023/12/16 11:29:46;;;;;;;0.20;0.20;;;;;;;;;;4983715;28;20041;-86
2023/12/16 11:32:12;;;;;;;0.10;0.10;;;;;;;;;;4960229;28;20044;-88
2023/12/16 11:34:42;;;;;;;0.10;0.10;;;;;;;;;;4976019;28;20038;-87
2023/12/16 11:37:08;;;;;;;0.15;0.15;;;;;;;;;;4976324;28;20390;-87
2023/12/16 11:39:40;;;;;;;0.30;0.30;;;;;;;;;;4975582;28;20050;-87
2023/12/16 11:42:07;;;;;;;0.22;0.22;;;;;;;;;;4976036;28;20042;-88
2023/12/16 11:44:52;;;;;;;0.43;0.43;;;;;;;;;;4976311;28;20070;-90
2023/12/16 11:47:24;;;;;;;0.10;0.10;;;;;;;;;;4976811;28;20042;-93
2023/12/16 11:49:52;;;;;;;0.10;0.10;;;;;;;;;;4977024;28;20382;-93
2023/12/16 11:52:22;;;;;;;0.10;0.10;;;;;;;;;;4984595;28;20120;-90
2023/12/16 11:54:54;;;;;;;0.10;0.10;;;;;;;;;;4975968;28;20093;-90
2023/12/16 11:57:21;;;;;;;0.10;0.10;;;;;;;;;;4959877;28;20084;-88
2023/12/16 11:59:47;;;;;;;0.10;0.10;;;;;;;;;;4975347;28;20508;-89
2023/12/16 12:02:14;;;;;;;0.10;0.10;;;;;;;;;;4976182;28;20046;-89
2023/12/16 12:04:42;;;;;;;0.10;0.10;;;;;;;;;;4974888;28;20088;-89
2023/12/16 12:07:08;;;;;;;0.17;0.17;;;;;;;;;;4980446;28;20070;-89
2023/12/16 12:09:34;;;;;;;0.10;0.10;;;;;;;;;;4959743;28;20560;-89
2023/12/16 12:12:01;;;;;;;0.10;0.10;;;;;;;;;;4959893;28;20057;-89
2023/12/16 12:14:27;;;;;;;0.10;0.10;;;;;;;;;;4975533;28;20054;-89
2023/12/16 12:16:53;;;;;;;0.30;0.30;;;;;;;;;;4972514;28;20422;-89
2023/12/16 12:19:19;;;;;;;0.10;0.10;;;;;;;;;;4940558;28;20062;-88
2023/12/16 12:21:45;;;;;;;0.10;0.10;;;;;;;;;;4945581;28;20105;-89
2023/12/16 12:24:11;;;;;;;0.10;0.10;;;;;;;;;;4975804;28;20034;-88
2023/12/16 12:26:38;;;;;;;0.10;0.10;;;;;;;;;;4975669;28;20166;-89
2023/12/16 12:29:04;;;;;;;0.10;0.10;;;;;;;;;;4975327;28;20128;-89
2023/12/16 12:31:30;;;;;;;0.15;0.15;;;;;;;;;;4975648;28;20133;-88
2023/12/16 12:33:56;;;;;;;0.20;0.20;;;;;;;;;;4992018;28;20057;-89
2023/12/16 12:36:23;;;;;;;0.10;0.10;;;;;;;;;;4991578;28;20042;-89
2023/12/16 12:38:53;;;;;;;0.20;0.20;;;;;;;;;;4975451;28;20482;-88
2023/12/16 12:41:19;;;;;;;0.98;0.40;;;;;;;;;;4991266;28;20073;-88
2023/12/16 12:43:45;;;;;;;0.20;0.20;;;;;;;;;;4975564;28;20069;-88
2023/12/16 12:46:12;;;;;;;0.10;0.10;;;;;;;;;;4975470;28;20062;-87
2023/12/16 12:48:53;;;;;;;0.20;0.20;;;;;;;;;;4991559;28;20042;-89
2023/12/16 12:51:19;;;;;;;0.20;0.20;;;;;;;;;;4974891;28;20123;-87
2023/12/16 12:53:45;;;;;;;0.43;0.43;;;;;;;;;;4987969;28;20506;-87
2023/12/16 12:56:12;;;;;;;0.20;0.20;;;;;;;;;;4971881;28;20181;-87
2023/12/16 12:58:38;;;;;;;0.10;0.10;;;;;;;;;;4971751;28;20138;-88
2023/12/16 13:01:05;;;;;;;0.10;0.10;;;;;;;;;;4972936;28;20059;-87
2023/12/16 13:03:32;;;;;;;0.10;0.10;;;;;;;;;;4989763;28;20238;-87
2023/12/16 13:06:02;;;;;;;0.20;0.20;;;;;;;;;;4943590;28;20039;-87
2023/12/16 13:08:28;;;;;;;0.10;0.10;;;;;;;;;;4988859;28;20529;-87
2023/12/16 13:10:54;;;;;;;0.10;0.10;;;;;;;;;;4959169;28;20057;-87
2023/12/16 13:13:20;;;;;;;0.10;0.10;;;;;;;;;;4975323;28;20502;-86
2023/12/16 13:15:48;;;;;;;0.10;0.10;;;;;;;;;;4975240;28;20046;-88
2023/12/16 13:18:14;;;;;;;0.10;0.10;;;;;;;;;;4986071;28;20082;-88
2023/12/16 13:20:41;;;;;;;0.20;0.20;;;;;;;;;;4956905;28;20093;-88
2023/12/16 13:23:07;;;;;;;0.10;0.10;;;;;;;;;;4991723;28;20042;-88
2023/12/16 13:25:33;;;;;;;0.10;0.10;;;;;;;;;;4966051;28;20089;-88
2023/12/16 13:28:00;;;;;;;0.20;0.20;;;;;;;;;;4978070;28;20105;-88
2023/12/16 13:30:26;;;;;;;0.10;0.10;;;;;;;;;;4962260;28;20046;-86
2023/12/16 13:32:52;;;;;;;0.20;0.20;;;;;;;;;;4962206;28;20103;-87
2023/12/16 13:35:18;;;;;;;0.20;0.20;;;;;;;;;;4962249;28;20343;-85
2023/12/16 13:37:44;;;;;;;0.10;0.10;;;;;;;;;;4962115;28;20515;-87
2023/12/16 13:40:11;;;;;;;0.10;0.10;;;;;;;;;;4994310;28;20038;-87
2023/12/16 13:42:37;;;;;;;0.13;0.13;;;;;;;;;;4974775;28;20085;-90
2023/12/16 13:45:04;;;;;;;0.10;0.10;;;;;;;;;;4943395;28;20042;-89
2023/12/16 13:47:30;;;;;;;0.28;0.20;;;;;;;;;;4951684;28;20038;-89
2023/12/16 13:49:56;;;;;;;0.10;0.10;;;;;;;;;;4977860;28;20124;-89
2023/12/16 13:52:22;;;;;;;0.17;0.17;;;;;;;;;;4974582;28;20478;-89
2023/12/16 13:54:49;;;;;;;0.10;0.10;;;;;;;;;;4942758;28;20039;-88
2023/12/16 13:57:15;;;;;;;0.20;0.20;;;;;;;;;;4947159;28;20487;-88
2023/12/16 13:59:41;;;;;;;0.20;0.20;;;;;;;;;;4977514;28;20082;-89
2023/12/16 14:02:07;;;;;;;0.20;0.20;;;;;;;;;;4977907;28;20134;-88
2023/12/16 14:04:33;;;;;;;0.65;0.30;;;;;;;;;;4977935;28;20086;-88
2023/12/16 14:06:59;;;;;;;0.10;0.10;;;;;;;;;;4977599;28;20038;-88
2023/12/16 14:09:25;;;;;;;0.20;0.20;;;;;;;;;;4977823;28;20414;-89
2023/12/16 14:11:51;;;;;;;0.10;0.10;;;;;;;;;;4977295;28;20042;-88
2023/12/16 14:14:17;;;;;;;0.10;0.10;;;;;;;;;;4977389;28;20039;-88
2023/12/16 14:16:43;;;;;;;0.20;0.20;;;;;;;;;;4977692;28;20418;-88
2023/12/16 14:19:10;;;;;;;0.10;0.10;;;;;;;;;;4992127;28;20038;-88
2023/12/16 14:21:35;;;;;;;0.10;0.10;;;;;;;;;;4961366;28;20046;-88
2023/12/16 14:24:01;;;;;;;0.10;0.10;;;;;;;;;;4961389;28;20034;-88
2023/12/16 14:26:28;;;;;;;0.10;0.10;;;;;;;;;;4977252;28;20366;-88
2023/12/16 14:28:54;;;;;;;0.10;0.10;;;;;;;;;;4973755;28;20050;-88
2023/12/16 14:31:21;;;;;;;0.10;0.10;;;;;;;;;;4942031;28;20043;-88
2023/12/16 14:33:47;;;;;;;0.75;0.20;;;;;;;;;;4956294;28;20053;-89
2023/12/16 14:36:13;;;;;;;0.20;0.20;;;;;;;;;;4977543;28;20521;-88
2023/12/16 14:38:39;;;;;;;0.35;0.35;;;;;;;;;;4976947;28;20092;-89